createdAt,value
2022-09-22T00:00:05.956Z,1.67
2022-09-22T00:02:08.301Z,1.80
2022-09-22T00:04:13.180Z,1.60
2022-09-22T00:06:18.573Z,1.70
2022-09-22T00:08:24.606Z,1.90
2022-09-22T00:10:28.795Z,1.90
2022-09-22T00:12:31.121Z,1.63
2022-09-22T00:14:36.018Z,1.70
2022-09-22T00:16:44.997Z,1.60
2022-09-22T00:18:47.744Z,1.50
2022-09-22T00:20:50.031Z,1.42
2022-09-22T00:22:52.543Z,1.55
2022-09-22T00:24:57.558Z,1.45
2022-09-22T00:27:04.506Z,1.55
2022-09-22T00:29:11.070Z,1.60
2022-09-22T00:31:17.727Z,2.08
2022-09-22T00:33:30.299Z,1.90
2022-09-22T00:35:32.550Z,1.70
2022-09-22T00:37:34.881Z,1.52
2022-09-22T00:41:48.145Z,1.90
2022-09-22T00:44:12.488Z,1.75
2022-09-22T00:46:19.239Z,1.50
2022-09-22T00:48:24.343Z,1.58
2022-09-22T00:50:26.745Z,1.80
2022-09-22T00:52:33.130Z,1.88
2022-09-22T00:54:35.817Z,1.92
2022-09-22T00:56:43.169Z,2.45
2022-09-22T00:58:52.324Z,2.55
2022-09-22T01:00:54.826Z,2.00
2022-09-22T01:02:59.558Z,2.42
2022-09-22T01:05:01.994Z,1.75
2022-09-22T01:07:06.062Z,2.40
2022-09-22T01:09:11.718Z,2.13
2022-09-22T01:11:19.165Z,2.00
2022-09-22T01:13:27.520Z,2.38
2022-09-22T01:15:40.650Z,1.85
2022-09-22T01:17:54.493Z,1.80
2022-09-22T01:20:32.333Z,2.50
2022-09-22T01:23:05.376Z,2.35
2022-09-22T01:25:26.250Z,2.00
2022-09-22T01:27:49.979Z,2.10
2022-09-22T01:30:12.905Z,1.90
2022-09-22T01:32:22.507Z,2.17
2022-09-22T01:34:30.107Z,2.63
2022-09-22T01:36:40.457Z,2.25
2022-09-22T01:38:54.415Z,2.22
2022-09-22T01:41:02.105Z,2.30
2022-09-22T01:43:13.399Z,2.28
2022-09-22T01:45:21.842Z,2.28
2022-09-22T01:47:28.527Z,2.60
2022-09-22T01:49:38.216Z,2.42
2022-09-22T01:51:44.888Z,2.38
2022-09-22T01:53:54.876Z,2.13
2022-09-22T01:56:05.284Z,2.78
2022-09-22T01:58:12.885Z,2.60
2022-09-22T02:00:19.000Z,2.08
2022-09-22T02:02:27.700Z,2.50
2022-09-22T02:04:35.691Z,2.17
2022-09-22T02:06:46.719Z,2.28
2022-09-22T02:08:53.849Z,2.03
2022-09-22T02:11:01.269Z,2.10
2022-09-22T02:13:05.390Z,1.80
2022-09-22T02:15:29.392Z,1.92
2022-09-22T02:17:37.414Z,1.90
2022-09-22T02:19:41.280Z,1.80
2022-09-22T02:21:45.637Z,2.00
2022-09-22T02:23:51.712Z,1.75
2022-09-22T02:25:55.925Z,1.80
2022-09-22T02:28:01.992Z,1.80
2022-09-22T02:30:09.495Z,1.80
2022-09-22T02:32:16.157Z,1.60
2022-09-22T02:34:21.310Z,1.60
2022-09-22T02:36:43.750Z,1.50
2022-09-22T02:38:58.013Z,1.95
2022-09-22T02:41:10.603Z,1.67
2022-09-22T02:43:17.236Z,1.70
2022-09-22T02:45:27.108Z,1.67
2022-09-22T02:47:36.957Z,1.70
2022-09-22T02:49:43.051Z,1.85
2022-09-22T02:51:48.426Z,1.70
2022-09-22T02:53:51.074Z,1.60
2022-09-22T02:55:53.621Z,1.80
2022-09-22T02:57:56.778Z,2.00
2022-09-22T02:59:59.145Z,1.88
2022-09-22T03:02:04.145Z,1.70
2022-09-22T03:04:06.648Z,1.85
2022-09-22T03:06:12.057Z,1.80
2022-09-22T03:08:14.491Z,1.70
2022-09-22T03:10:17.075Z,1.90
2022-09-22T03:12:19.503Z,1.80
2022-09-22T03:14:22.726Z,1.73
2022-09-22T03:16:25.117Z,1.80
2022-09-22T03:18:27.509Z,1.55
2022-09-22T03:20:29.997Z,1.80
2022-09-22T03:22:35.330Z,1.90
2022-09-22T03:24:37.708Z,2.08
2022-09-22T03:26:40.352Z,2.20
2022-09-22T03:28:44.165Z,3.10
2022-09-22T03:30:46.616Z,3.00
2022-09-22T03:32:48.903Z,2.13
2022-09-22T03:34:52.528Z,2.03
2022-09-22T03:36:54.841Z,1.80
2022-09-22T03:39:00.346Z,1.80
2022-09-22T03:41:03.203Z,2.00
2022-09-22T03:43:05.671Z,1.77
2022-09-22T03:45:11.053Z,1.98
2022-09-22T03:47:13.439Z,1.80
2022-09-22T03:49:15.749Z,1.83
2022-09-22T03:51:22.499Z,2.10
2022-09-22T03:53:25.671Z,1.63
2022-09-22T03:55:30.596Z,1.30
2022-09-22T03:57:33.050Z,1.52
2022-09-22T03:59:35.507Z,1.50
2022-09-22T04:01:38.360Z,1.63
2022-09-22T04:03:41.115Z,1.60
2022-09-22T04:05:49.760Z,1.60
2022-09-22T04:07:52.119Z,1.67
2022-09-22T04:09:54.853Z,1.55
2022-09-22T04:12:00.597Z,1.80
2022-09-22T04:14:05.939Z,1.63
2022-09-22T04:16:09.095Z,1.50
2022-09-22T04:18:14.528Z,1.50
2022-09-22T04:20:17.029Z,1.38
2022-09-22T04:22:19.299Z,1.30
2022-09-22T04:24:21.702Z,1.45
2022-09-22T04:26:24.061Z,1.40
2022-09-22T04:28:29.562Z,1.60
2022-09-22T04:30:32.391Z,1.20
2022-09-22T04:32:34.842Z,1.50
2022-09-22T04:34:37.337Z,1.30
2022-09-22T04:36:39.672Z,1.67
2022-09-22T04:38:42.172Z,1.40
2022-09-22T04:40:45.096Z,1.40
2022-09-22T04:42:47.439Z,1.42
2022-09-22T04:44:52.532Z,1.60
2022-09-22T04:46:57.206Z,1.50
2022-09-22T04:49:00.047Z,1.60
2022-09-22T04:51:02.391Z,1.55
2022-09-22T04:53:05.144Z,1.90
2022-09-22T04:55:09.425Z,1.63
2022-09-22T04:57:12.091Z,1.92
2022-09-22T04:59:14.556Z,2.30
2022-09-22T05:01:19.632Z,2.10
2022-09-22T05:03:22.562Z,2.03
2022-09-22T05:05:25.042Z,2.05
2022-09-22T05:07:27.313Z,2.10
2022-09-22T05:09:30.091Z,1.80
2022-09-22T05:11:32.981Z,1.98
2022-09-22T05:13:35.911Z,1.85
2022-09-22T05:15:38.384Z,1.80
2022-09-22T05:17:49.905Z,1.90
2022-09-22T05:19:58.393Z,2.13
2022-09-22T05:22:01.144Z,1.90
2022-09-22T05:24:04.073Z,2.10
2022-09-22T05:26:06.842Z,1.80
2022-09-22T05:28:09.273Z,1.60
2022-09-22T05:30:12.820Z,1.38
2022-09-22T05:32:15.679Z,1.40
2022-09-22T05:34:22.708Z,1.30
2022-09-22T05:36:25.203Z,1.30
2022-09-22T05:38:27.611Z,1.83
2022-09-22T05:40:31.129Z,1.60
2022-09-22T05:42:33.781Z,1.60
2022-09-22T05:44:36.314Z,1.48
2022-09-22T05:46:40.568Z,1.70
2022-09-22T05:50:51.032Z,1.98
2022-09-22T05:53:26.281Z,2.00
2022-09-22T05:55:43.492Z,1.98
2022-09-22T05:57:56.023Z,1.50
2022-09-22T05:59:58.669Z,2.63
2022-09-22T06:02:01.937Z,2.20
2022-09-22T06:04:09.951Z,1.90
2022-09-22T06:06:15.138Z,1.85
2022-09-22T06:08:17.668Z,1.90
2022-09-22T06:10:20.016Z,1.88
2022-09-22T06:12:22.959Z,2.00
2022-09-22T06:14:25.273Z,1.98
2022-09-22T06:16:30.364Z,1.50
2022-09-22T06:18:36.137Z,2.10
2022-09-22T06:20:38.505Z,2.05
2022-09-22T06:22:46.388Z,2.20
2022-09-22T06:24:49.837Z,2.28
2022-09-22T06:26:52.089Z,2.20
2022-09-22T06:28:54.442Z,1.98
2022-09-22T06:31:03.554Z,2.30
2022-09-22T06:33:05.962Z,2.47
2022-09-22T06:35:09.536Z,2.30
2022-09-22T06:37:11.974Z,2.60
2022-09-22T06:39:17.137Z,3.45
2022-09-22T06:41:19.482Z,2.95
2022-09-22T06:43:30.447Z,3.03
2022-09-22T06:45:33.877Z,3.22
2022-09-22T06:47:38.725Z,2.90
2022-09-22T06:49:42.262Z,2.90
2022-09-22T06:51:44.664Z,3.77
2022-09-22T06:53:51.784Z,3.78
2022-09-22T06:55:59.164Z,3.92
2022-09-22T06:58:03.138Z,5.20
2022-09-22T07:00:07.173Z,5.30
2022-09-22T07:02:12.650Z,5.70
2022-09-22T07:04:15.159Z,5.75
2022-09-22T07:06:20.542Z,6.15
2022-09-22T07:08:24.714Z,6.47
2022-09-22T07:10:27.318Z,6.50
2022-09-22T07:12:32.514Z,6.00
2022-09-22T07:14:34.875Z,7.18
2022-09-22T07:16:38.123Z,6.32
2022-09-22T07:18:42.652Z,6.55
2022-09-22T07:20:45.881Z,5.25
2022-09-22T07:22:48.248Z,5.82
2022-09-22T07:24:50.764Z,6.18
2022-09-22T07:26:53.185Z,6.20
2022-09-22T07:28:59.977Z,5.80
2022-09-22T07:31:07.454Z,5.50
2022-09-22T07:33:09.884Z,5.93
2022-09-22T07:35:12.523Z,5.90
2022-09-22T07:37:15.897Z,5.07
2022-09-22T07:39:18.294Z,5.77
2022-09-22T07:41:22.888Z,6.03
2022-09-22T07:43:25.403Z,5.30
2022-09-22T07:45:30.260Z,6.03
2022-09-22T07:47:51.177Z,6.30
2022-09-22T07:49:54.109Z,5.43
2022-09-22T07:51:57.779Z,5.50
2022-09-22T07:54:09.769Z,5.85
2022-09-22T07:56:15.182Z,5.70
2022-09-22T07:58:17.633Z,5.53
2022-09-22T08:00:20.327Z,5.22
2022-09-22T08:02:27.864Z,5.70
2022-09-22T08:04:32.034Z,5.60
2022-09-22T08:06:35.879Z,6.20
2022-09-22T08:08:42.273Z,5.07
2022-09-22T08:10:45.624Z,5.05
2022-09-22T08:12:48.337Z,5.47
2022-09-22T08:14:50.771Z,5.50
2022-09-22T08:16:54.156Z,5.18
2022-09-22T08:21:07.957Z,5.07
2022-09-22T08:23:10.684Z,5.03
2022-09-22T08:25:13.053Z,5.43
2022-09-22T08:27:15.448Z,4.55
2022-09-22T08:29:17.965Z,4.05
2022-09-22T08:31:26.344Z,4.30
2022-09-22T08:33:35.063Z,4.60
2022-09-22T08:35:51.009Z,5.13
2022-09-22T08:37:53.418Z,4.60
2022-09-22T08:39:59.001Z,4.65
2022-09-22T08:42:09.492Z,4.47
2022-09-22T08:44:23.098Z,4.63
2022-09-22T08:46:29.629Z,4.25
2022-09-22T08:48:55.235Z,4.50
2022-09-22T08:51:23.591Z,3.92
2022-09-22T08:53:33.773Z,4.65
2022-09-22T08:55:43.208Z,4.10
2022-09-22T08:57:58.605Z,4.10
2022-09-22T09:00:06.005Z,4.00
2022-09-22T09:02:36.062Z,4.20
2022-09-22T09:05:11.089Z,4.18
2022-09-22T09:07:25.918Z,3.60
2022-09-22T09:09:38.994Z,4.10
2022-09-22T09:11:58.184Z,3.65
2022-09-22T09:14:19.240Z,3.92
2022-09-22T09:16:38.982Z,3.80
2022-09-22T09:18:50.690Z,3.85
2022-09-22T09:20:59.515Z,3.83
2022-09-22T09:23:12.428Z,4.10
2022-09-22T09:25:24.327Z,3.65
2022-09-22T09:27:34.935Z,3.85
2022-09-22T09:29:47.210Z,3.60
2022-09-22T09:31:53.417Z,3.67
2022-09-22T09:33:59.525Z,3.50
2022-09-22T09:36:02.515Z,4.13
2022-09-22T09:38:11.375Z,3.35
2022-09-22T09:40:18.380Z,3.22
2022-09-22T09:42:25.048Z,3.28
2022-09-22T09:44:30.383Z,2.75
2022-09-22T09:46:48.709Z,3.60
2022-09-22T09:49:05.567Z,2.63
2022-09-22T09:51:11.897Z,2.95
2022-09-22T09:53:30.644Z,2.97
2022-09-22T09:55:35.317Z,2.85
2022-09-22T09:58:08.232Z,3.22
2022-09-22T10:00:31.888Z,3.60
2022-09-22T10:02:48.728Z,3.20
2022-09-22T10:05:01.599Z,2.70
2022-09-22T10:07:15.692Z,2.85
2022-09-22T10:09:35.991Z,3.05
2022-09-22T10:11:38.469Z,3.30
2022-09-22T10:13:42.941Z,2.90
2022-09-22T10:16:02.130Z,3.40
2022-09-22T10:18:33.951Z,3.20
2022-09-22T10:20:36.980Z,3.05
2022-09-22T10:22:42.688Z,3.13
2022-09-22T10:25:00.266Z,3.85
2022-09-22T10:27:05.422Z,3.90
2022-09-22T10:29:21.156Z,3.33
2022-09-22T10:31:27.630Z,3.53
2022-09-22T10:33:32.716Z,3.05
2022-09-22T10:35:38.182Z,3.38
2022-09-22T10:37:40.835Z,3.03
2022-09-22T10:39:49.624Z,2.72
2022-09-22T10:41:55.302Z,2.88
2022-09-22T10:44:20.927Z,2.97
2022-09-22T10:46:38.275Z,3.05
2022-09-22T10:48:48.214Z,3.10
2022-09-22T10:51:02.602Z,3.00
2022-09-22T10:53:26.465Z,2.90
2022-09-22T10:55:30.842Z,2.60
2022-09-22T10:57:56.111Z,2.78
2022-09-22T11:00:12.371Z,2.78
2022-09-22T11:02:53.025Z,2.67
2022-09-22T11:05:04.928Z,3.25
2022-09-22T11:07:53.762Z,2.30
2022-09-22T11:10:41.656Z,2.67
2022-09-22T11:12:56.426Z,3.00
2022-09-22T11:15:15.583Z,3.25
2022-09-22T11:17:39.245Z,3.03
2022-09-22T11:20:09.807Z,2.95
2022-09-22T11:22:30.365Z,2.92
2022-09-22T11:24:48.674Z,3.75
2022-09-22T11:26:54.220Z,2.65
2022-09-22T11:29:24.020Z,3.08
2022-09-22T11:31:41.084Z,3.40
2022-09-22T11:34:04.379Z,3.63
2022-09-22T11:36:17.532Z,3.53
2022-09-22T11:38:34.932Z,3.50
2022-09-22T11:41:05.766Z,3.13
2022-09-22T11:43:26.954Z,3.67
2022-09-22T11:45:44.083Z,3.60
2022-09-22T11:47:59.869Z,3.67
2022-09-22T11:50:26.820Z,4.20
2022-09-22T11:52:47.311Z,4.78
2022-09-22T11:55:04.958Z,4.70
2022-09-22T11:57:11.343Z,4.38
2022-09-22T11:59:26.165Z,4.07
2022-09-22T12:01:37.744Z,4.78
2022-09-22T12:03:47.806Z,4.72
2022-09-22T12:05:57.259Z,4.50
2022-09-22T12:08:04.319Z,4.30
2022-09-22T12:10:14.030Z,4.50
2022-09-22T12:12:19.560Z,4.32
2022-09-22T12:14:22.009Z,4.82
2022-09-22T12:16:33.284Z,5.05
2022-09-22T12:18:48.904Z,3.88
2022-09-22T12:20:59.221Z,5.03
2022-09-22T12:23:16.916Z,4.32
2022-09-22T12:25:48.744Z,4.38
2022-09-22T12:27:56.298Z,3.88
2022-09-22T12:30:01.592Z,4.22
2022-09-22T12:32:04.003Z,4.55
2022-09-22T12:34:18.584Z,3.83
2022-09-22T12:36:29.917Z,3.65
2022-09-22T12:38:32.563Z,4.00
2022-09-22T12:40:38.018Z,3.95
2022-09-22T12:42:43.429Z,4.40
2022-09-22T12:44:51.754Z,4.30
2022-09-22T12:46:58.831Z,3.80
2022-09-22T12:49:14.989Z,4.18
2022-09-22T12:51:40.910Z,4.10
2022-09-22T12:56:47.117Z,3.90
2022-09-22T12:58:49.827Z,3.42
2022-09-22T13:00:53.660Z,3.65
2022-09-22T13:02:57.803Z,3.80
2022-09-22T13:07:37.381Z,3.88
2022-09-22T13:09:42.360Z,3.80
2022-09-22T13:12:15.147Z,3.63
2022-09-22T13:14:47.245Z,4.03
2022-09-22T13:16:50.492Z,3.45
2022-09-22T13:18:59.544Z,4.25
2022-09-22T13:21:03.708Z,3.53
2022-09-22T13:23:12.160Z,3.83
2022-09-22T13:25:22.541Z,4.68
2022-09-22T13:27:25.752Z,3.80
2022-09-22T13:29:28.525Z,4.35
2022-09-22T13:31:42.860Z,3.85
2022-09-22T13:33:54.874Z,4.15
2022-09-22T13:36:04.361Z,4.15
2022-09-22T13:38:12.609Z,4.28
2022-09-22T13:40:15.540Z,3.97
2022-09-22T13:42:22.344Z,4.10
2022-09-22T13:44:29.016Z,3.92
2022-09-22T13:46:39.670Z,4.53
2022-09-22T13:48:42.120Z,4.43
2022-09-22T13:50:50.515Z,4.50
2022-09-22T13:52:53.622Z,4.03
2022-09-22T13:55:13.077Z,4.38
2022-09-22T13:57:22.039Z,4.03
2022-09-22T13:59:32.303Z,4.05
2022-09-22T14:01:45.676Z,4.22
2022-09-22T14:03:49.158Z,4.47
2022-09-22T14:05:53.908Z,4.30
2022-09-22T14:08:11.883Z,4.50
2022-09-22T14:10:20.197Z,4.53
2022-09-22T14:12:23.036Z,4.20
2022-09-22T14:14:28.867Z,3.67
2022-09-22T14:16:35.067Z,3.70
2022-09-22T14:18:45.266Z,4.80
2022-09-22T14:20:48.451Z,3.70
2022-09-22T14:22:50.780Z,4.30
2022-09-22T14:24:56.325Z,3.92
2022-09-22T14:27:18.262Z,4.50
2022-09-22T14:29:26.391Z,3.95
2022-09-22T14:31:33.188Z,4.68
2022-09-22T14:33:45.189Z,4.68
2022-09-22T14:35:49.720Z,4.55
2022-09-22T14:37:53.061Z,4.10
2022-09-22T14:40:02.219Z,4.72
2022-09-22T14:42:23.438Z,3.80
2022-09-22T14:44:42.324Z,4.15
2022-09-22T14:46:56.262Z,4.43
2022-09-22T14:49:43.084Z,3.58
2022-09-22T14:51:47.676Z,3.63
2022-09-22T14:53:54.616Z,3.22
2022-09-22T14:56:05.998Z,3.40
2022-09-22T14:58:20.985Z,3.22
2022-09-22T15:00:41.814Z,3.50
2022-09-22T15:02:49.786Z,3.50
2022-09-22T15:04:55.955Z,3.60
2022-09-22T15:07:00.548Z,2.97
2022-09-22T15:09:04.772Z,3.30
2022-09-22T15:11:07.258Z,3.33
2022-09-22T15:13:29.678Z,2.90
2022-09-22T15:15:32.082Z,3.10
2022-09-22T15:17:55.816Z,2.90
2022-09-22T15:19:59.483Z,3.13
2022-09-22T15:22:03.980Z,2.85
2022-09-22T15:24:06.792Z,3.83
2022-09-22T15:26:15.125Z,2.55
2022-09-22T15:28:23.786Z,3.22
2022-09-22T15:30:29.894Z,2.95
2022-09-22T15:32:33.134Z,2.90
2022-09-22T15:34:35.755Z,3.60
2022-09-22T15:36:45.891Z,2.90
2022-09-22T15:38:51.459Z,2.97
2022-09-22T15:40:54.407Z,2.97
2022-09-22T15:43:12.144Z,3.10
2022-09-22T15:45:19.066Z,3.13
2022-09-22T15:47:21.410Z,2.78
2022-09-22T15:49:26.579Z,3.53
2022-09-22T15:51:31.331Z,3.03
2022-09-22T15:53:35.607Z,2.90
2022-09-22T15:55:37.958Z,2.90
2022-09-22T15:57:42.657Z,2.92
2022-09-22T15:59:46.240Z,2.63
2022-09-22T16:01:55.916Z,2.78
2022-09-22T16:04:00.307Z,2.90
2022-09-22T16:06:05.473Z,2.53
2022-09-22T16:08:15.063Z,3.30
2022-09-22T16:10:23.878Z,2.85
2022-09-22T16:12:27.792Z,2.70
2022-09-22T16:14:30.084Z,2.70
2022-09-22T16:16:33.809Z,2.50
2022-09-22T16:18:41.960Z,2.60
2022-09-22T16:20:44.449Z,2.75
2022-09-22T16:22:49.729Z,2.80
2022-09-22T16:24:52.074Z,2.72
2022-09-22T16:26:54.934Z,2.67
2022-09-22T16:28:57.821Z,2.28
2022-09-22T16:31:04.992Z,2.60
2022-09-22T16:33:07.544Z,2.30
2022-09-22T16:35:16.448Z,2.30
2022-09-22T16:37:18.837Z,2.40
2022-09-22T16:39:21.380Z,2.10
2022-09-22T16:41:25.416Z,2.40
2022-09-22T16:43:28.091Z,2.70
2022-09-22T16:45:49.131Z,2.33
2022-09-22T16:47:51.389Z,2.40
2022-09-22T16:49:54.823Z,2.58
2022-09-22T16:52:00.159Z,2.38
2022-09-22T16:54:13.150Z,2.25
2022-09-22T16:56:15.521Z,2.42
2022-09-22T16:58:17.860Z,2.30
2022-09-22T17:00:22.687Z,2.47
2022-09-22T17:02:30.216Z,2.58
2022-09-22T17:04:32.939Z,2.75
2022-09-22T17:06:37.739Z,2.47
2022-09-22T17:08:44.153Z,2.15
2022-09-22T17:10:49.284Z,2.65
2022-09-22T17:12:52.582Z,2.70
2022-09-22T17:14:59.181Z,2.53
2022-09-22T17:17:06.544Z,2.63
2022-09-22T17:19:10.504Z,2.65
2022-09-22T17:21:14.802Z,2.90
2022-09-22T17:23:18.258Z,2.75
2022-09-22T17:25:29.302Z,2.97
2022-09-22T17:27:32.719Z,2.70
2022-09-22T17:29:35.244Z,2.58
2022-09-22T17:31:40.025Z,3.00
2022-09-22T17:36:00.506Z,2.50
2022-09-22T17:38:02.852Z,2.88
2022-09-22T17:40:10.560Z,2.75
2022-09-22T17:42:15.578Z,2.78
2022-09-22T17:44:21.486Z,2.75
2022-09-22T17:46:25.368Z,2.67
2022-09-22T17:48:49.919Z,2.88
2022-09-22T17:51:11.146Z,2.47
2022-09-22T17:53:31.917Z,2.80
2022-09-22T17:55:36.785Z,2.80
2022-09-22T17:57:43.075Z,3.03
2022-09-22T17:59:48.722Z,3.00
2022-09-22T18:01:53.502Z,3.50
2022-09-22T18:03:56.117Z,2.88
2022-09-22T18:05:58.437Z,3.00
2022-09-22T18:08:01.167Z,2.85
2022-09-22T18:10:03.830Z,3.38
2022-09-22T18:12:09.962Z,2.78
2022-09-22T18:14:14.886Z,3.50
2022-09-22T18:16:19.545Z,3.55
2022-09-22T18:18:30.860Z,3.28
2022-09-22T18:20:34.479Z,3.22
2022-09-22T18:22:50.782Z,3.00
2022-09-22T18:24:55.587Z,2.97
2022-09-22T18:27:02.355Z,3.35
2022-09-22T18:29:07.716Z,3.00
2022-09-22T18:31:14.313Z,3.13
2022-09-22T18:33:18.607Z,2.85
2022-09-22T18:35:20.943Z,3.57
2022-09-22T18:37:28.877Z,3.10
2022-09-22T18:39:33.044Z,3.75
2022-09-22T18:43:43.203Z,3.40
2022-09-22T18:45:45.673Z,3.53
2022-09-22T18:47:52.136Z,3.15
2022-09-22T18:49:54.902Z,3.42
2022-09-22T18:51:59.742Z,3.42
2022-09-22T18:54:08.136Z,3.03
2022-09-22T18:56:17.129Z,3.63
2022-09-22T18:58:19.487Z,3.97
2022-09-22T19:00:22.282Z,3.90
2022-09-22T19:02:25.912Z,3.80
2022-09-22T19:06:54.103Z,4.00
2022-09-22T19:08:56.926Z,3.92
2022-09-22T19:11:00.170Z,3.57
2022-09-22T19:13:02.838Z,3.78
2022-09-22T19:15:07.189Z,4.43
2022-09-22T19:17:12.221Z,3.90
2022-09-22T19:19:14.919Z,3.83
2022-09-22T19:21:20.346Z,3.13
2022-09-22T19:23:22.728Z,3.85
2022-09-22T19:25:25.298Z,3.78
2022-09-22T19:27:27.760Z,3.92
2022-09-22T19:29:31.003Z,3.80
2022-09-22T19:31:33.687Z,3.20
2022-09-22T19:33:38.056Z,3.88
2022-09-22T19:35:44.028Z,3.47
2022-09-22T19:37:52.168Z,4.25
2022-09-22T19:39:54.829Z,4.00
2022-09-22T19:41:57.282Z,4.03
2022-09-22T19:44:02.947Z,3.70
2022-09-22T19:46:10.390Z,3.80
2022-09-22T19:48:15.768Z,4.38
2022-09-22T19:50:20.822Z,3.42
2022-09-22T19:52:25.369Z,3.72
2022-09-22T19:54:33.732Z,3.97
2022-09-22T19:56:36.085Z,3.83
2022-09-22T19:58:41.800Z,4.10
2022-09-22T20:00:46.681Z,3.50
2022-09-22T20:02:49.442Z,3.47
2022-09-22T20:04:53.643Z,3.97
2022-09-22T20:06:56.035Z,3.75
2022-09-22T20:09:04.379Z,3.85
2022-09-22T20:11:26.074Z,3.70
2022-09-22T20:13:47.590Z,3.60
2022-09-22T20:15:50.590Z,3.95
2022-09-22T20:17:54.181Z,3.63
2022-09-22T20:19:56.679Z,3.88
2022-09-22T20:22:18.398Z,4.10
2022-09-22T20:24:24.324Z,4.20
2022-09-22T20:26:29.623Z,4.60
2022-09-22T20:28:32.003Z,4.25
2022-09-22T20:30:35.114Z,4.90
2022-09-22T20:32:41.879Z,4.10
2022-09-22T20:34:45.313Z,4.07
2022-09-22T20:36:47.529Z,3.58
2022-09-22T20:38:51.520Z,4.05
2022-09-22T20:40:57.297Z,4.50
2022-09-22T20:43:06.270Z,4.40
2022-09-22T20:45:11.347Z,4.38
2022-09-22T20:47:15.851Z,5.47
2022-09-22T20:49:19.751Z,5.32
2022-09-22T20:51:24.551Z,4.78
2022-09-22T20:53:27.570Z,5.25
2022-09-22T20:55:29.848Z,5.53
2022-09-22T20:57:32.344Z,4.88
2022-09-22T20:59:37.815Z,5.90
2022-09-22T21:01:42.944Z,5.93
2022-09-22T21:03:45.866Z,5.43
2022-09-22T21:05:48.472Z,5.82
2022-09-22T21:08:13.111Z,5.03
2022-09-22T21:10:34.166Z,5.07
2022-09-22T21:12:36.476Z,5.38
2022-09-22T21:14:47.027Z,5.57
2022-09-22T21:16:51.258Z,5.05
2022-09-22T21:18:53.706Z,5.47
2022-09-22T21:21:00.147Z,5.78
2022-09-22T21:23:02.762Z,6.53
2022-09-22T21:25:08.628Z,6.30
2022-09-22T21:27:11.116Z,7.35
2022-09-22T21:29:13.515Z,6.55
2022-09-22T21:31:19.895Z,5.30
2022-09-22T21:33:22.915Z,5.80
2022-09-22T21:35:25.991Z,5.05
2022-09-22T21:37:28.436Z,6.30
2022-09-22T21:39:30.805Z,6.20
2022-09-22T21:41:33.211Z,5.53
2022-09-22T21:43:38.773Z,5.80
2022-09-22T21:45:41.109Z,6.70
2022-09-22T21:47:50.316Z,6.78
2022-09-22T21:49:52.606Z,5.47
2022-09-22T21:51:54.966Z,5.22
2022-09-22T21:53:57.365Z,6.10
2022-09-22T21:56:01.398Z,6.00
2022-09-22T21:58:03.664Z,6.20
2022-09-22T22:00:08.000Z,6.95
2022-09-22T22:02:10.545Z,7.00
2022-09-22T22:04:17.655Z,6.75
2022-09-22T22:06:21.906Z,6.72
2022-09-22T22:08:24.207Z,6.63
2022-09-22T22:10:29.041Z,7.28
2022-09-22T22:12:34.904Z,6.25
2022-09-22T22:14:37.187Z,5.93
2022-09-22T22:16:41.080Z,6.47
2022-09-22T22:18:43.521Z,6.20
2022-09-22T22:20:48.377Z,6.50
2022-09-22T22:22:50.812Z,6.95
2022-09-22T22:24:53.313Z,5.95
2022-09-22T22:26:57.584Z,6.80
2022-09-22T22:31:04.692Z,7.20
2022-09-22T22:33:08.224Z,7.32
2022-09-22T22:35:11.776Z,6.30
2022-09-22T22:37:21.558Z,6.20
2022-09-22T22:39:24.230Z,6.28
2022-09-22T22:41:26.660Z,6.45
2022-09-22T22:43:29.489Z,6.82
2022-09-22T22:45:31.938Z,7.50
2022-09-22T22:47:34.995Z,7.80
2022-09-22T22:49:37.332Z,6.65
2022-09-22T22:51:43.222Z,7.55
2022-09-22T22:53:56.679Z,8.48
2022-09-22T22:56:01.092Z,6.28
2022-09-22T22:58:04.594Z,7.80
2022-09-22T23:00:08.627Z,7.30
2022-09-22T23:02:12.604Z,9.27
2022-09-22T23:04:16.778Z,6.55
2022-09-22T23:06:21.510Z,7.13
2022-09-22T23:08:23.977Z,7.53
2022-09-22T23:10:31.299Z,8.23
2022-09-22T23:12:37.216Z,9.93
2022-09-22T23:14:39.711Z,10.18
2022-09-22T23:16:43.688Z,7.28
2022-09-22T23:18:51.817Z,8.68
2022-09-22T23:20:56.560Z,7.85
2022-09-22T23:22:58.840Z,7.93
2022-09-22T23:25:01.172Z,7.28
2022-09-22T23:27:06.281Z,9.00
2022-09-22T23:29:10.078Z,7.82
2022-09-22T23:31:14.695Z,6.90
2022-09-22T23:33:19.523Z,8.48
2022-09-22T23:35:22.039Z,7.32
2022-09-22T23:37:25.087Z,7.57
2022-09-22T23:39:29.652Z,6.85
2022-09-22T23:41:32.686Z,7.22
2022-09-22T23:43:37.817Z,8.35
2022-09-22T23:45:43.090Z,7.60
2022-09-22T23:47:48.221Z,6.82
2022-09-22T23:49:52.040Z,7.45
2022-09-22T23:51:54.349Z,7.53
2022-09-22T23:53:57.325Z,9.18
2022-09-22T23:56:00.694Z,6.72
2022-09-22T23:58:03.103Z,8.00
